Azure — ZCEE2 — position and weather

sailwx.info

Track history (hours):
 
Tides and Currents Weather Stations Pressure Air Temp Water Temp Dewpoint Dewpoint Depression Visibility Wind Speed Wind Dir Waves Ship Positions

Azure

Last reported at 2014-Sep-01 17:14 UTC. Time now 2014-Sep-01 23:34 UTC.
Position N 46°15' W 006°50'.

Length 289 m; draft 8.6 m.

Type: Ship. MMSI: 310610000.

Date/timePositionNaut miles runAvg speedWind from/ knotsBaromVisibWave heightAir tempDewpointWater temp
2014-Sep-01 17:14N 46°15' W 006°50'2715.9
2014-Sep-01 15:33N 46°39' W 006°35'1916.1
2014-Sep-01 14:24N 46°56' W 006°25'1616.2
2014-Sep-01 13:24N 47°11' W 006°16'1416.3
2014-Sep-01 12:32N 47°24' W 006°08'1816.9
2014-Sep-01 11:27N 47°42' W 005°57'1617.2
2014-Sep-01 10:33N 47°56' W 005°48'1716.8
2014-Sep-01 09:32N 48°13' W 005°43'2215.4
2014-Sep-01 08:06N 48°31' W 005°24'5414.8
2014-Sep-01 04:27N 49°08' W 004°25'1516.5
2014-Sep-01 03:33N 49°17' W 004°07'1616.4
2014-Sep-01 02:33N 49°29' W 003°50'10514.9
2014-Aug-31 19:33N 50°23' W 001°30'1716.9
2014-Aug-31 18:33N 50°30' W 001°06'1413.9
2014-Aug-31 17:33N 50°43' W 000°60'1313.0
2014-Aug-31 16:33N 50°49' W 001°18'6 2.8
2014-Aug-31 14:28N 50°54' W 001°24'0 0.0
2014-Aug-31 13:28N 50°54' W 001°24'0 0.0
2014-Aug-31 12:34N 50°54' W 001°24'0 0.0
2014-Aug-31 11:33N 50°54' W 001°24'0 0.0
2014-Aug-31 10:33N 50°54' W 001°24'0 0.0
2014-Aug-31 09:32N 50°54' W 001°24'0 0.0
2014-Aug-31 08:32N 50°54' W 001°24'0 0.0
2014-Aug-31 07:31N 50°54' W 001°24'0 0.0
2014-Aug-31 06:31N 50°54' W 001°24'0 0.0
2014-Aug-31 05:31N 50°54' W 001°24'1 0.6
2014-Aug-31 04:33N 50°53' W 001°24'7 7.1
2014-Aug-31 03:34N 50°47' W 001°19'1514.6
2014-Aug-31 02:33N 50°40' W 000°58'1312.8
2014-Aug-31 01:34N 50°30' W 001°10'1817.2
2014-Aug-31 00:32N 50°23' W 001°35'14719.4
2014-Aug-30 17:00N 48°54' W 004°36'1627.6 300 / 81020.710.8 15.514.617.0
2014-Aug-30 16:24N 48°47' W 004°58'63813.0
2014-Aug-28 15:26N 38°45' W 009°52'1414.9
2014-Aug-28 14:28N 38°31' W 009°48'5014.9
2014-Aug-28 11:08N 37°43' W 009°34'914.9
2014-Aug-28 10:32N 37°34' W 009°31'1814.9
2014-Aug-28 09:18N 37°16' W 009°26'1115.1
2014-Aug-28 08:33N 37°05' W 009°23'1414.0
2014-Aug-28 07:33N 36°52' W 009°18'1414.2
2014-Aug-28 06:33N 36°43' W 009°04'1118.6
2014-Aug-28 06:00N 36°36' W 008°54'715.8 360 / 281016.110.8 19.017.420.0
2014-Aug-28 05:33N 36°39' W 008°46'1515.3
2014-Aug-28 04:33N 36°34' W 008°28'1515.3
2014-Aug-28 03:33N 36°30' W 008°10'1515.4
2014-Aug-28 02:33N 36°25' W 007°51'1515.4
2014-Aug-28 01:33N 36°21' W 007°33'1515.2
2014-Aug-28 00:33N 36°15' W 007°16'8614.1
2014-Aug-27 18:27N 35°59' W 005°30'84 6.7
2014-Aug-27 06:00N 36°12' W 003°48'14818.9 240 / 131012.110.8 23.019.924.0
2014-Aug-26 22:10N 36°40' W 000°48'1318.8
2014-Aug-26 21:28N 36°43' W 000°32'1718.4
2014-Aug-26 20:32N 36°47' W 000°11'1818.2
2014-Aug-26 19:32N 36°51' E 000°11'2218.1
2014-Aug-26 18:19N 36°55' E 000°38'1718.5
2014-Aug-26 17:25N 36°59' E 000°59'1618.8
2014-Aug-26 16:33N 37°03' E 001°18'1919.0
2014-Aug-26 15:33N 37°06' E 001°42'2019.1
2014-Aug-26 14:29N 37°10' E 002°07'1818.9
2014-Aug-26 13:33N 37°14' E 002°29'1919.0
2014-Aug-26 12:33N 37°19' E 002°52'1918.7
2014-Aug-26 11:33N 37°20' E 003°15'713.1
2014-Aug-26 11:00N 37°18' E 003°24'1227.3 270 / 91013.6 5.4 0.524.522.326.0
2014-Aug-26 10:33N 37°21' E 003°38'1919.3
2014-Aug-26 09:33N 37°23' E 004°03'2119.2
2014-Aug-26 08:26N 37°24' E 004°30'1719.0
2014-Aug-26 07:33N 37°26' E 004°51'1919.3
2014-Aug-26 06:33N 37°28' E 005°15'2019.7
2014-Aug-26 05:33N 37°28' E 005°40'2019.8
2014-Aug-26 04:33N 37°30' E 006°04'2419.5
2014-Aug-26 03:20N 37°31' E 006°34'5519.1
2014-Aug-26 00:27N 37°35' E 007°44'1719.0
2014-Aug-25 23:33N 37°36' E 008°05'1919.2
2014-Aug-25 22:32N 37°38' E 008°29'1919.4
2014-Aug-25 21:33N 37°39' E 008°54'1818.2
2014-Aug-25 20:33N 37°39' E 009°17'1818.4
2014-Aug-25 19:33N 37°39' E 009°40'1918.6
2014-Aug-25 18:33N 37°40' E 010°03'1918.6
2014-Aug-25 17:33N 37°36' E 010°26'1918.8
2014-Aug-25 16:33N 37°31' E 010°49'6019.0
2014-Aug-25 13:23N 37°14' E 012°02'3418.7
2014-Aug-25 11:33N 37°05' E 012°43'1918.7
2014-Aug-25 10:33N 37°00' E 013°06'1919.0
2014-Aug-25 09:33N 36°55' E 013°29'1919.1
2014-Aug-25 08:33N 36°50' E 013°51'1918.8
2014-Aug-25 07:33N 36°44' E 014°14'1818.2
2014-Aug-25 06:33N 36°38' E 014°35'41511.8
2014-Aug-23 19:22N 36°24' E 023°11'116 7.4
2014-Aug-23 03:33N 37°28' E 025°13'1111.1
2014-Aug-23 02:32N 37°20' E 025°04'1111.2
2014-Aug-23 01:32N 37°11' E 024°54'2310.5
2014-Aug-22 23:18N 37°14' E 024°25'811.0
2014-Aug-22 22:33N 37°12' E 024°15'10 9.4
2014-Aug-22 21:29N 37°10' E 024°03'8 7.7
2014-Aug-22 20:31N 37°08' E 023°54'7 7.1
2014-Aug-22 19:33N 37°12' E 023°47'1413.0
2014-Aug-22 18:31N 37°26' E 023°44'1212.9
2014-Aug-22 17:33N 37°38' E 023°43'  
Track history (hours):
 
Tides and Currents Weather Stations Pressure Air Temp Water Temp Dewpoint Dewpoint Depression Visibility Wind Speed Wind Dir Waves Ship Positions

Azure

Last reported at 2014-Sep-01 17:14 UTC. Time now 2014-Sep-01 23:34 UTC.
Position N 46°15' W 006°50'.

Length 289 m; draft 8.6 m.

Type: Ship. MMSI: 310610000.

Date/timePositionNaut miles runAvg speedWind from/ knotsBaromVisibWave heightAir tempDewpointWater temp
2014-Sep-01 17:14N 46°15' W 006°50'2715.9
2014-Sep-01 15:33N 46°39' W 006°35'1916.1
2014-Sep-01 14:24N 46°56' W 006°25'1616.2
2014-Sep-01 13:24N 47°11' W 006°16'1416.3
2014-Sep-01 12:32N 47°24' W 006°08'1816.9
2014-Sep-01 11:27N 47°42' W 005°57'1617.2
2014-Sep-01 10:33N 47°56' W 005°48'1716.8
2014-Sep-01 09:32N 48°13' W 005°43'2215.4
2014-Sep-01 08:06N 48°31' W 005°24'5414.8
2014-Sep-01 04:27N 49°08' W 004°25'1516.5
2014-Sep-01 03:33N 49°17' W 004°07'1616.4
2014-Sep-01 02:33N 49°29' W 003°50'10514.9
2014-Aug-31 19:33N 50°23' W 001°30'1716.9
2014-Aug-31 18:33N 50°30' W 001°06'1413.9
2014-Aug-31 17:33N 50°43' W 000°60'1313.0
2014-Aug-31 16:33N 50°49' W 001°18'6 2.8
2014-Aug-31 14:28N 50°54' W 001°24'0 0.0
2014-Aug-31 13:28N 50°54' W 001°24'0 0.0
2014-Aug-31 12:34N 50°54' W 001°24'0 0.0
2014-Aug-31 11:33N 50°54' W 001°24'0 0.0
2014-Aug-31 10:33N 50°54' W 001°24'0 0.0
2014-Aug-31 09:32N 50°54' W 001°24'0 0.0
2014-Aug-31 08:32N 50°54' W 001°24'0 0.0
2014-Aug-31 07:31N 50°54' W 001°24'0 0.0
2014-Aug-31 06:31N 50°54' W 001°24'0 0.0
2014-Aug-31 05:31N 50°54' W 001°24'1 0.6
2014-Aug-31 04:33N 50°53' W 001°24'7 7.1
2014-Aug-31 03:34N 50°47' W 001°19'1514.6
2014-Aug-31 02:33N 50°40' W 000°58'1312.8
2014-Aug-31 01:34N 50°30' W 001°10'1817.2
2014-Aug-31 00:32N 50°23' W 001°35'14719.4
2014-Aug-30 17:00N 48°54' W 004°36'1627.6 300 / 81020.710.8 15.514.617.0
2014-Aug-30 16:24N 48°47' W 004°58'63813.0
2014-Aug-28 15:26N 38°45' W 009°52'1414.9
2014-Aug-28 14:28N 38°31' W 009°48'5014.9
2014-Aug-28 11:08N 37°43' W 009°34'914.9
2014-Aug-28 10:32N 37°34' W 009°31'1814.9
2014-Aug-28 09:18N 37°16' W 009°26'1115.1
2014-Aug-28 08:33N 37°05' W 009°23'1414.0
2014-Aug-28 07:33N 36°52' W 009°18'1414.2
2014-Aug-28 06:33N 36°43' W 009°04'1118.6
2014-Aug-28 06:00N 36°36' W 008°54'715.8 360 / 281016.110.8 19.017.420.0
2014-Aug-28 05:33N 36°39' W 008°46'1515.3
2014-Aug-28 04:33N 36°34' W 008°28'1515.3
2014-Aug-28 03:33N 36°30' W 008°10'1515.4
2014-Aug-28 02:33N 36°25' W 007°51'1515.4
2014-Aug-28 01:33N 36°21' W 007°33'1515.2
2014-Aug-28 00:33N 36°15' W 007°16'8614.1
2014-Aug-27 18:27N 35°59' W 005°30'84 6.7
2014-Aug-27 06:00N 36°12' W 003°48'14818.9 240 / 131012.110.8 23.019.924.0
2014-Aug-26 22:10N 36°40' W 000°48'1318.8
2014-Aug-26 21:28N 36°43' W 000°32'1718.4
2014-Aug-26 20:32N 36°47' W 000°11'1818.2
2014-Aug-26 19:32N 36°51' E 000°11'2218.1
2014-Aug-26 18:19N 36°55' E 000°38'1718.5
2014-Aug-26 17:25N 36°59' E 000°59'1618.8
2014-Aug-26 16:33N 37°03' E 001°18'1919.0
2014-Aug-26 15:33N 37°06' E 001°42'2019.1
2014-Aug-26 14:29N 37°10' E 002°07'1818.9
2014-Aug-26 13:33N 37°14' E 002°29'1919.0
2014-Aug-26 12:33N 37°19' E 002°52'1918.7
2014-Aug-26 11:33N 37°20' E 003°15'713.1
2014-Aug-26 11:00N 37°18' E 003°24'1227.3 270 / 91013.6 5.4 0.524.522.326.0
2014-Aug-26 10:33N 37°21' E 003°38'1919.3
2014-Aug-26 09:33N 37°23' E 004°03'2119.2
2014-Aug-26 08:26N 37°24' E 004°30'1719.0
2014-Aug-26 07:33N 37°26' E 004°51'1919.3
2014-Aug-26 06:33N 37°28' E 005°15'2019.7
2014-Aug-26 05:33N 37°28' E 005°40'2019.8
2014-Aug-26 04:33N 37°30' E 006°04'2419.5
2014-Aug-26 03:20N 37°31' E 006°34'5519.1
2014-Aug-26 00:27N 37°35' E 007°44'1719.0
2014-Aug-25 23:33N 37°36' E 008°05'1919.2
2014-Aug-25 22:32N 37°38' E 008°29'1919.4
2014-Aug-25 21:33N 37°39' E 008°54'1818.2
2014-Aug-25 20:33N 37°39' E 009°17'1818.4
2014-Aug-25 19:33N 37°39' E 009°40'1918.6
2014-Aug-25 18:33N 37°40' E 010°03'1918.6
2014-Aug-25 17:33N 37°36' E 010°26'1918.8
2014-Aug-25 16:33N 37°31' E 010°49'6019.0
2014-Aug-25 13:23N 37°14' E 012°02'3418.7
2014-Aug-25 11:33N 37°05' E 012°43'1918.7
2014-Aug-25 10:33N 37°00' E 013°06'1919.0
2014-Aug-25 09:33N 36°55' E 013°29'1919.1
2014-Aug-25 08:33N 36°50' E 013°51'1918.8
2014-Aug-25 07:33N 36°44' E 014°14'1818.2
2014-Aug-25 06:33N 36°38' E 014°35'41511.8
2014-Aug-23 19:22N 36°24' E 023°11'116 7.4
2014-Aug-23 03:33N 37°28' E 025°13'1111.1
2014-Aug-23 02:32N 37°20' E 025°04'1111.2
2014-Aug-23 01:32N 37°11' E 024°54'2310.5
2014-Aug-22 23:18N 37°14' E 024°25'811.0
2014-Aug-22 22:33N 37°12' E 024°15'10 9.4
2014-Aug-22 21:29N 37°10' E 024°03'8 7.7
2014-Aug-22 20:31N 37°08' E 023°54'7 7.1
2014-Aug-22 19:33N 37°12' E 023°47'1413.0
2014-Aug-22 18:31N 37°26' E 023°44'1212.9
2014-Aug-22 17:33N 37°38' E 023°43'  

Dump ship's entire track history